sensor_id;sensor_type;location;lat;lon;timestamp;P1;durP1;ratioP1;P2;durP2;ratioP2
50281;SDS011;36176;51.506;10.272;2022-12-07T00:01:33;12.87;;;10.83;;
50281;SDS011;36176;51.506;10.272;2022-12-07T00:04:02;11.93;;;10.67;;
50281;SDS011;36176;51.506;10.272;2022-12-07T00:06:33;13.77;;;11.00;;
50281;SDS011;36176;51.506;10.272;2022-12-07T00:09:04;10.50;;;9.37;;
50281;SDS011;36176;51.506;10.272;2022-12-07T00:11:52;11.20;;;9.37;;
50281;SDS011;36176;51.506;10.272;2022-12-07T00:14:19;9.90;;;8.60;;
50281;SDS011;36176;51.506;10.272;2022-12-07T00:16:48;17.53;;;13.17;;
50281;SDS011;36176;51.506;10.272;2022-12-07T00:19:17;14.40;;;11.37;;
50281;SDS011;36176;51.506;10.272;2022-12-07T00:21:45;11.77;;;9.57;;
50281;SDS011;36176;51.506;10.272;2022-12-07T00:24:12;11.33;;;10.00;;
50281;SDS011;36176;51.506;10.272;2022-12-07T00:26:40;11.73;;;10.17;;
50281;SDS011;36176;51.506;10.272;2022-12-07T00:29:18;13.87;;;10.50;;
50281;SDS011;36176;51.506;10.272;2022-12-07T00:31:48;14.30;;;11.10;;
50281;SDS011;36176;51.506;10.272;2022-12-07T00:34:17;10.90;;;9.40;;
50281;SDS011;36176;51.506;10.272;2022-12-07T00:36:46;13.90;;;10.73;;
50281;SDS011;36176;51.506;10.272;2022-12-07T00:39:14;10.70;;;9.60;;
50281;SDS011;36176;51.506;10.272;2022-12-07T00:42:00;11.03;;;9.03;;
50281;SDS011;36176;51.506;10.272;2022-12-07T00:44:27;11.87;;;9.60;;
50281;SDS011;36176;51.506;10.272;2022-12-07T00:46:55;10.63;;;9.53;;
50281;SDS011;36176;51.506;10.272;2022-12-07T00:49:22;11.60;;;9.83;;
50281;SDS011;36176;51.506;10.272;2022-12-07T00:51:49;10.23;;;8.47;;
50281;SDS011;36176;51.506;10.272;2022-12-07T00:54:17;10.50;;;9.37;;
50281;SDS011;36176;51.506;10.272;2022-12-07T00:56:44;11.57;;;9.53;;
50281;SDS011;36176;51.506;10.272;2022-12-07T00:59:12;12.20;;;10.57;;
50281;SDS011;36176;51.506;10.272;2022-12-07T01:01:43;11.87;;;10.40;;
50281;SDS011;36176;51.506;10.272;2022-12-07T01:04:10;9.07;;;8.17;;
50281;SDS011;36176;51.506;10.272;2022-12-07T01:06:40;11.17;;;9.47;;
50281;SDS011;36176;51.506;10.272;2022-12-07T01:09:08;13.73;;;10.63;;
50281;SDS011;36176;51.506;10.272;2022-12-07T01:11:48;12.80;;;9.57;;
50281;SDS011;36176;51.506;10.272;2022-12-07T01:14:15;9.30;;;8.40;;
50281;SDS011;36176;51.506;10.272;2022-12-07T01:16:43;11.67;;;10.13;;
50281;SDS011;36176;51.506;10.272;2022-12-07T01:19:10;11.17;;;9.97;;
50281;SDS011;36176;51.506;10.272;2022-12-07T01:21:37;13.13;;;10.83;;
50281;SDS011;36176;51.506;10.272;2022-12-07T01:24:06;11.30;;;9.87;;
50281;SDS011;36176;51.506;10.272;2022-12-07T01:26:34;15.57;;;11.73;;
50281;SDS011;36176;51.506;10.272;2022-12-07T01:29:02;12.13;;;9.53;;
50281;SDS011;36176;51.506;10.272;2022-12-07T01:31:29;10.20;;;9.13;;
50281;SDS011;36176;51.506;10.272;2022-12-07T01:33:58;14.27;;;11.40;;
50281;SDS011;36176;51.506;10.272;2022-12-07T01:36:27;10.73;;;9.13;;
50281;SDS011;36176;51.506;10.272;2022-12-07T01:38:58;8.73;;;7.83;;
50281;SDS011;36176;51.506;10.272;2022-12-07T01:41:31;10.60;;;9.47;;
50281;SDS011;36176;51.506;10.272;2022-12-07T01:44:08;11.93;;;10.20;;
50281;SDS011;36176;51.506;10.272;2022-12-07T01:52:13;13.13;;;10.17;;
50281;SDS011;36176;51.506;10.272;2022-12-07T01:54:45;11.57;;;10.30;;
50281;SDS011;36176;51.506;10.272;2022-12-07T01:57:16;12.73;;;10.63;;
50281;SDS011;36176;51.506;10.272;2022-12-07T01:59:47;13.90;;;11.43;;
50281;SDS011;36176;51.506;10.272;2022-12-07T02:02:21;10.47;;;9.33;;
50281;SDS011;36176;51.506;10.272;2022-12-07T02:04:53;16.60;;;11.80;;
50281;SDS011;36176;51.506;10.272;2022-12-07T02:07:22;12.90;;;10.60;;
50281;SDS011;36176;51.506;10.272;2022-12-07T02:09:50;11.03;;;9.60;;
50281;SDS011;36176;51.506;10.272;2022-12-07T02:12:18;14.37;;;11.23;;
50281;SDS011;36176;51.506;10.272;2022-12-07T02:14:45;22.10;;;14.87;;
50281;SDS011;36176;51.506;10.272;2022-12-07T02:17:32;20.10;;;13.13;;
50281;SDS011;36176;51.506;10.272;2022-12-07T02:20:21;9.60;;;8.60;;
50281;SDS011;36176;51.506;10.272;2022-12-07T02:28:31;12.87;;;10.40;;
50281;SDS011;36176;51.506;10.272;2022-12-07T02:31:04;14.60;;;10.77;;
50281;SDS011;36176;51.506;10.272;2022-12-07T02:33:39;16.20;;;12.27;;
50281;SDS011;36176;51.506;10.272;2022-12-07T02:36:18;16.07;;;11.37;;
50281;SDS011;36176;51.506;10.272;2022-12-07T02:39:03;13.03;;;10.70;;
50281;SDS011;36176;51.506;10.272;2022-12-07T02:41:51;14.30;;;10.33;;
50281;SDS011;36176;51.506;10.272;2022-12-07T02:44:23;11.33;;;10.13;;
50281;SDS011;36176;51.506;10.272;2022-12-07T02:47:03;24.73;;;14.57;;
50281;SDS011;36176;51.506;10.272;2022-12-07T02:49:34;9.47;;;8.47;;
50281;SDS011;36176;51.506;10.272;2022-12-07T02:52:03;20.07;;;13.30;;
50281;SDS011;36176;51.506;10.272;2022-12-07T02:54:31;15.87;;;11.60;;
50281;SDS011;36176;51.506;10.272;2022-12-07T03:02:40;12.23;;;10.03;;
50281;SDS011;36176;51.506;10.272;2022-12-07T03:11:02;15.57;;;11.23;;
50281;SDS011;36176;51.506;10.272;2022-12-07T03:16:55;10.47;;;9.17;;
50281;SDS011;36176;51.506;10.272;2022-12-07T03:19:28;16.87;;;12.90;;
50281;SDS011;36176;51.506;10.272;2022-12-07T03:22:03;16.20;;;14.50;;
50281;SDS011;36176;51.506;10.272;2022-12-07T03:24:36;15.57;;;11.73;;
50281;SDS011;36176;51.506;10.272;2022-12-07T03:27:09;13.70;;;11.07;;
50281;SDS011;36176;51.506;10.272;2022-12-07T03:32:54;14.27;;;11.07;;
50281;SDS011;36176;51.506;10.272;2022-12-07T03:35:52;14.80;;;12.07;;
50281;SDS011;36176;51.506;10.272;2022-12-07T03:38:40;16.57;;;14.97;;
50281;SDS011;36176;51.506;10.272;2022-12-07T03:41:22;16.20;;;13.30;;
50281;SDS011;36176;51.506;10.272;2022-12-07T03:43:56;15.40;;;12.40;;
50281;SDS011;36176;51.506;10.272;2022-12-07T03:49:06;19.47;;;17.37;;
50281;SDS011;36176;51.506;10.272;2022-12-07T03:51:40;18.60;;;14.40;;
50281;SDS011;36176;51.506;10.272;2022-12-07T03:54:26;16.70;;;13.73;;
50281;SDS011;36176;51.506;10.272;2022-12-07T03:57:01;20.50;;;14.30;;
50281;SDS011;36176;51.506;10.272;2022-12-07T03:59:31;20.27;;;16.23;;
50281;SDS011;36176;51.506;10.272;2022-12-07T04:02:02;18.67;;;14.10;;
50281;SDS011;36176;51.506;10.272;2022-12-07T04:04:32;17.70;;;15.37;;
50281;SDS011;36176;51.506;10.272;2022-12-07T04:07:01;17.67;;;13.10;;
50281;SDS011;36176;51.506;10.272;2022-12-07T04:09:28;18.33;;;16.30;;
50281;SDS011;36176;51.506;10.272;2022-12-07T04:12:14;16.37;;;14.47;;
50281;SDS011;36176;51.506;10.272;2022-12-07T04:14:59;16.47;;;13.93;;
50281;SDS011;36176;51.506;10.272;2022-12-07T04:17:27;16.70;;;13.13;;
50281;SDS011;36176;51.506;10.272;2022-12-07T04:19:54;16.47;;;13.87;;
50281;SDS011;36176;51.506;10.272;2022-12-07T04:22:21;15.33;;;13.67;;
50281;SDS011;36176;51.506;10.272;2022-12-07T04:24:48;15.83;;;14.07;;
50281;SDS011;36176;51.506;10.272;2022-12-07T04:27:16;14.80;;;12.80;;
50281;SDS011;36176;51.506;10.272;2022-12-07T04:29:57;15.07;;;12.07;;
50281;SDS011;36176;51.506;10.272;2022-12-07T04:32:25;25.13;;;22.83;;
50281;SDS011;36176;51.506;10.272;2022-12-07T04:35:07;16.33;;;13.40;;
50281;SDS011;36176;51.506;10.272;2022-12-07T04:37:35;16.17;;;13.23;;
50281;SDS011;36176;51.506;10.272;2022-12-07T04:40:03;21.80;;;14.57;;
50281;SDS011;36176;51.506;10.272;2022-12-07T04:42:31;22.63;;;14.93;;
50281;SDS011;36176;51.506;10.272;2022-12-07T04:44:58;19.27;;;14.40;;
50281;SDS011;36176;51.506;10.272;2022-12-07T04:47:31;13.20;;;11.33;;
50281;SDS011;36176;51.506;10.272;2022-12-07T04:49:58;13.47;;;11.67;;
50281;SDS011;36176;51.506;10.272;2022-12-07T04:52:26;15.73;;;13.07;;
50281;SDS011;36176;51.506;10.272;2022-12-07T04:54:53;15.30;;;12.10;;
50281;SDS011;36176;51.506;10.272;2022-12-07T04:57:21;14.27;;;12.73;;
50281;SDS011;36176;51.506;10.272;2022-12-07T04:59:48;17.47;;;12.77;;
50281;SDS011;36176;51.506;10.272;2022-12-07T05:02:15;16.83;;;13.00;;
50281;SDS011;36176;51.506;10.272;2022-12-07T05:04:42;17.20;;;12.23;;
50281;SDS011;36176;51.506;10.272;2022-12-07T05:07:09;19.67;;;13.97;;
50281;SDS011;36176;51.506;10.272;2022-12-07T05:09:36;13.00;;;10.30;;
50281;SDS011;36176;51.506;10.272;2022-12-07T05:12:04;19.13;;;13.53;;
50281;SDS011;36176;51.506;10.272;2022-12-07T05:14:31;13.63;;;10.37;;
50281;SDS011;36176;51.506;10.272;2022-12-07T05:16:58;13.73;;;11.10;;
50281;SDS011;36176;51.506;10.272;2022-12-07T05:19:26;15.30;;;12.37;;
50281;SDS011;36176;51.506;10.272;2022-12-07T05:21:53;15.63;;;12.40;;
50281;SDS011;36176;51.506;10.272;2022-12-07T05:24:20;16.50;;;13.80;;
50281;SDS011;36176;51.506;10.272;2022-12-07T05:26:51;19.43;;;13.67;;
50281;SDS011;36176;51.506;10.272;2022-12-07T05:29:36;15.13;;;12.17;;
50281;SDS011;36176;51.506;10.272;2022-12-07T05:32:12;14.43;;;11.70;;
50281;SDS011;36176;51.506;10.272;2022-12-07T05:34:39;14.67;;;12.43;;
50281;SDS011;36176;51.506;10.272;2022-12-07T05:37:06;16.87;;;13.33;;
50281;SDS011;36176;51.506;10.272;2022-12-07T05:39:33;21.10;;;13.90;;
50281;SDS011;36176;51.506;10.272;2022-12-07T05:42:01;15.67;;;12.53;;
50281;SDS011;36176;51.506;10.272;2022-12-07T05:44:41;22.10;;;14.87;;
50281;SDS011;36176;51.506;10.272;2022-12-07T05:47:10;18.97;;;14.10;;
50281;SDS011;36176;51.506;10.272;2022-12-07T05:49:38;24.00;;;15.17;;
50281;SDS011;36176;51.506;10.272;2022-12-07T05:52:05;20.03;;;14.80;;
50281;SDS011;36176;51.506;10.272;2022-12-07T05:54:33;17.50;;;13.63;;
50281;SDS011;36176;51.506;10.272;2022-12-07T05:57:00;18.90;;;14.57;;
50281;SDS011;36176;51.506;10.272;2022-12-07T05:59:27;23.60;;;15.30;;
50281;SDS011;36176;51.506;10.272;2022-12-07T06:01:56;17.77;;;14.03;;
50281;SDS011;36176;51.506;10.272;2022-12-07T06:04:30;18.10;;;13.73;;
50281;SDS011;36176;51.506;10.272;2022-12-07T06:07:08;16.03;;;13.20;;
50281;SDS011;36176;51.506;10.272;2022-12-07T06:09:37;16.00;;;13.07;;
50281;SDS011;36176;51.506;10.272;2022-12-07T06:12:29;34.87;;;18.20;;
50281;SDS011;36176;51.506;10.272;2022-12-07T06:15:11;25.93;;;15.87;;
50281;SDS011;36176;51.506;10.272;2022-12-07T06:17:58;16.70;;;12.73;;
50281;SDS011;36176;51.506;10.272;2022-12-07T06:20:25;17.67;;;13.33;;
50281;SDS011;36176;51.506;10.272;2022-12-07T06:22:56;15.83;;;12.97;;
50281;SDS011;36176;51.506;10.272;2022-12-07T06:25:54;17.80;;;13.43;;
50281;SDS011;36176;51.506;10.272;2022-12-07T06:28:21;15.40;;;12.63;;
50281;SDS011;36176;51.506;10.272;2022-12-07T06:34:05;17.80;;;13.00;;
50281;SDS011;36176;51.506;10.272;2022-12-07T06:36:46;18.43;;;13.57;;
50281;SDS011;36176;51.506;10.272;2022-12-07T06:39:22;17.37;;;12.33;;
50281;SDS011;36176;51.506;10.272;2022-12-07T06:41:54;16.57;;;12.37;;
50281;SDS011;36176;51.506;10.272;2022-12-07T06:44:23;16.87;;;13.37;;
50281;SDS011;36176;51.506;10.272;2022-12-07T06:53:30;18.27;;;13.63;;
50281;SDS011;36176;51.506;10.272;2022-12-07T06:56:23;15.37;;;13.70;;
50281;SDS011;36176;51.506;10.272;2022-12-07T06:58:50;14.27;;;10.83;;
50281;SDS011;36176;51.506;10.272;2022-12-07T07:01:18;11.90;;;9.43;;
50281;SDS011;36176;51.506;10.272;2022-12-07T07:03:55;14.60;;;11.03;;
50281;SDS011;36176;51.506;10.272;2022-12-07T07:09:08;15.97;;;11.37;;
50281;SDS011;36176;51.506;10.272;2022-12-07T07:11:55;15.03;;;10.73;;
50281;SDS011;36176;51.506;10.272;2022-12-07T07:14:29;15.47;;;10.33;;
50281;SDS011;36176;51.506;10.272;2022-12-07T07:17:22;13.33;;;10.00;;
50281;SDS011;36176;51.506;10.272;2022-12-07T07:20:05;13.90;;;10.57;;
50281;SDS011;36176;51.506;10.272;2022-12-07T07:22:38;17.47;;;14.77;;
50281;SDS011;36176;51.506;10.272;2022-12-07T07:25:09;10.33;;;8.37;;
50281;SDS011;36176;51.506;10.272;2022-12-07T07:27:48;14.87;;;11.13;;
50281;SDS011;36176;51.506;10.272;2022-12-07T07:30:24;39.47;;;26.60;;
50281;SDS011;36176;51.506;10.272;2022-12-07T07:32:58;22.40;;;16.33;;
50281;SDS011;36176;51.506;10.272;2022-12-07T07:35:39;13.50;;;9.20;;
50281;SDS011;36176;51.506;10.272;2022-12-07T07:38:18;16.27;;;13.80;;
50281;SDS011;36176;51.506;10.272;2022-12-07T07:40:51;12.63;;;10.23;;
50281;SDS011;36176;51.506;10.272;2022-12-07T07:44:08;12.80;;;10.33;;
50281;SDS011;36176;51.506;10.272;2022-12-07T07:46:42;14.67;;;11.37;;
50281;SDS011;36176;51.506;10.272;2022-12-07T07:49:10;8.80;;;7.87;;
50281;SDS011;36176;51.506;10.272;2022-12-07T07:51:38;17.60;;;12.00;;
50281;SDS011;36176;51.506;10.272;2022-12-07T07:54:47;15.63;;;13.87;;
50281;SDS011;36176;51.506;10.272;2022-12-07T07:57:18;13.33;;;11.93;;
50281;SDS011;36176;51.506;10.272;2022-12-07T07:59:48;13.03;;;11.40;;
50281;SDS011;36176;51.506;10.272;2022-12-07T08:02:16;9.67;;;8.67;;
50281;SDS011;36176;51.506;10.272;2022-12-07T08:05:07;15.17;;;10.43;;
50281;SDS011;36176;51.506;10.272;2022-12-07T08:08:17;9.90;;;7.40;;
50281;SDS011;36176;51.506;10.272;2022-12-07T08:10:52;12.17;;;9.27;;
50281;SDS011;36176;51.506;10.272;2022-12-07T08:13:25;10.77;;;7.83;;
50281;SDS011;36176;51.506;10.272;2022-12-07T08:16:26;8.80;;;7.07;;
50281;SDS011;36176;51.506;10.272;2022-12-07T08:19:08;12.27;;;8.00;;
50281;SDS011;36176;51.506;10.272;2022-12-07T08:21:42;10.73;;;7.30;;
50281;SDS011;36176;51.506;10.272;2022-12-07T08:24:11;11.17;;;8.70;;
50281;SDS011;36176;51.506;10.272;2022-12-07T08:27:06;13.87;;;12.57;;
50281;SDS011;36176;51.506;10.272;2022-12-07T08:32:51;15.13;;;13.77;;
50281;SDS011;36176;51.506;10.272;2022-12-07T08:35:54;10.37;;;7.10;;
50281;SDS011;36176;51.506;10.272;2022-12-07T08:39:11;10.83;;;7.30;;
50281;SDS011;36176;51.506;10.272;2022-12-07T08:42:03;8.50;;;6.47;;
50281;SDS011;36176;51.506;10.272;2022-12-07T08:44:30;9.03;;;6.07;;
50281;SDS011;36176;51.506;10.272;2022-12-07T08:50:45;7.60;;;6.17;;
50281;SDS011;36176;51.506;10.272;2022-12-07T08:53:39;10.83;;;9.70;;
50281;SDS011;36176;51.506;10.272;2022-12-07T08:56:22;7.00;;;4.67;;
50281;SDS011;36176;51.506;10.272;2022-12-07T08:59:41;10.03;;;9.03;;
50281;SDS011;36176;51.506;10.272;2022-12-07T09:02:12;5.57;;;5.00;;
50281;SDS011;36176;51.506;10.272;2022-12-07T09:04:42;11.93;;;10.63;;
50281;SDS011;36176;51.506;10.272;2022-12-07T09:07:13;6.43;;;5.83;;
50281;SDS011;36176;51.506;10.272;2022-12-07T09:09:40;8.03;;;6.30;;
50281;SDS011;36176;51.506;10.272;2022-12-07T09:12:08;6.90;;;4.23;;
50281;SDS011;36176;51.506;10.272;2022-12-07T09:15:21;11.73;;;10.60;;
50281;SDS011;36176;51.506;10.272;2022-12-07T09:18:12;8.93;;;8.00;;
50281;SDS011;36176;51.506;10.272;2022-12-07T09:20:50;6.40;;;5.27;;
50281;SDS011;36176;51.506;10.272;2022-12-07T09:29:01;5.40;;;4.23;;
50281;SDS011;36176;51.506;10.272;2022-12-07T09:31:32;6.00;;;4.63;;
50281;SDS011;36176;51.506;10.272;2022-12-07T09:34:10;8.10;;;7.40;;
50281;SDS011;36176;51.506;10.272;2022-12-07T09:36:38;6.40;;;5.80;;
50281;SDS011;36176;51.506;10.272;2022-12-07T09:39:15;6.87;;;5.60;;
50281;SDS011;36176;51.506;10.272;2022-12-07T09:41:51;11.03;;;10.13;;
50281;SDS011;36176;51.506;10.272;2022-12-07T09:44:49;8.57;;;7.50;;
50281;SDS011;36176;51.506;10.272;2022-12-07T09:47:21;3.97;;;3.57;;
50281;SDS011;36176;51.506;10.272;2022-12-07T09:50:05;4.90;;;3.93;;
50281;SDS011;36176;51.506;10.272;2022-12-07T09:52:44;4.77;;;4.33;;
50281;SDS011;36176;51.506;10.272;2022-12-07T09:55:26;5.03;;;3.70;;
50281;SDS011;36176;51.506;10.272;2022-12-07T09:58:04;5.27;;;3.73;;
50281;SDS011;36176;51.506;10.272;2022-12-07T10:00:41;4.30;;;3.40;;
50281;SDS011;36176;51.506;10.272;2022-12-07T10:03:27;5.73;;;4.00;;
50281;SDS011;36176;51.506;10.272;2022-12-07T10:05:58;7.10;;;5.33;;
50281;SDS011;36176;51.506;10.272;2022-12-07T10:08:26;5.07;;;3.83;;
50281;SDS011;36176;51.506;10.272;2022-12-07T10:10:55;9.77;;;8.77;;
50281;SDS011;36176;51.506;10.272;2022-12-07T10:13:52;11.47;;;10.43;;
50281;SDS011;36176;51.506;10.272;2022-12-07T10:16:38;6.27;;;3.80;;
50281;SDS011;36176;51.506;10.272;2022-12-07T10:19:27;5.57;;;3.80;;
50281;SDS011;36176;51.506;10.272;2022-12-07T10:24:49;7.47;;;6.73;;
50281;SDS011;36176;51.506;10.272;2022-12-07T10:50:06;7.97;;;7.27;;
50281;SDS011;36176;51.506;10.272;2022-12-07T10:56:35;9.50;;;8.67;;
50281;SDS011;36176;51.506;10.272;2022-12-07T11:10:05;3.77;;;2.93;;
50281;SDS011;36176;51.506;10.272;2022-12-07T11:19:20;4.37;;;3.40;;
50281;SDS011;36176;51.506;10.272;2022-12-07T11:40:58;4.50;;;2.80;;
50281;SDS011;36176;51.506;10.272;2022-12-07T11:47:45;5.73;;;2.90;;
50281;SDS011;36176;51.506;10.272;2022-12-07T11:50:46;5.67;;;4.03;;
50281;SDS011;36176;51.506;10.272;2022-12-07T11:57:52;3.60;;;2.50;;
50281;SDS011;36176;51.506;10.272;2022-12-07T12:00:44;2.73;;;2.40;;
50281;SDS011;36176;51.506;10.272;2022-12-07T12:07:20;10.70;;;9.43;;
50281;SDS011;36176;51.506;10.272;2022-12-07T12:22:53;5.30;;;2.60;;
50281;SDS011;36176;51.506;10.272;2022-12-07T12:26:58;3.33;;;3.03;;
50281;SDS011;36176;51.506;10.272;2022-12-07T12:29:53;12.50;;;11.27;;
50281;SDS011;36176;51.506;10.272;2022-12-07T12:32:44;4.90;;;2.50;;
50281;SDS011;36176;51.506;10.272;2022-12-07T12:35:36;4.70;;;3.33;;
50281;SDS011;36176;51.506;10.272;2022-12-07T12:45:02;4.93;;;3.53;;
50281;SDS011;36176;51.506;10.272;2022-12-07T12:48:29;6.10;;;5.27;;
50281;SDS011;36176;51.506;10.272;2022-12-07T12:54:10;7.43;;;4.17;;
50281;SDS011;36176;51.506;10.272;2022-12-07T12:57:47;6.30;;;3.00;;
50281;SDS011;36176;51.506;10.272;2022-12-07T13:04:14;4.77;;;2.37;;
50281;SDS011;36176;51.506;10.272;2022-12-07T13:06:48;6.73;;;2.90;;
50281;SDS011;36176;51.506;10.272;2022-12-07T13:09:41;5.80;;;2.87;;
50281;SDS011;36176;51.506;10.272;2022-12-07T13:12:12;6.07;;;5.07;;
50281;SDS011;36176;51.506;10.272;2022-12-07T13:20:41;4.63;;;3.10;;
50281;SDS011;36176;51.506;10.272;2022-12-07T13:27:07;4.40;;;2.53;;
50281;SDS011;36176;51.506;10.272;2022-12-07T13:29:52;4.83;;;2.60;;
50281;SDS011;36176;51.506;10.272;2022-12-07T13:33:03;5.50;;;2.50;;
50281;SDS011;36176;51.506;10.272;2022-12-07T13:39:24;3.87;;;2.67;;
50281;SDS011;36176;51.506;10.272;2022-12-07T13:44:40;9.10;;;7.70;;
50281;SDS011;36176;51.506;10.272;2022-12-07T13:47:16;5.00;;;3.07;;
50281;SDS011;36176;51.506;10.272;2022-12-07T13:53:26;5.83;;;4.23;;
50281;SDS011;36176;51.506;10.272;2022-12-07T13:55:57;7.47;;;5.67;;
50281;SDS011;36176;51.506;10.272;2022-12-07T13:58:44;6.60;;;3.43;;
50281;SDS011;36176;51.506;10.272;2022-12-07T14:05:06;5.83;;;2.90;;
50281;SDS011;36176;51.506;10.272;2022-12-07T14:10:40;7.87;;;3.00;;
50281;SDS011;36176;51.506;10.272;2022-12-07T14:13:47;5.50;;;2.77;;
50281;SDS011;36176;51.506;10.272;2022-12-07T14:16:56;7.17;;;2.80;;
50281;SDS011;36176;51.506;10.272;2022-12-07T14:20:03;4.07;;;2.60;;
50281;SDS011;36176;51.506;10.272;2022-12-07T14:23:26;7.70;;;5.10;;
50281;SDS011;36176;51.506;10.272;2022-12-07T14:26:11;8.00;;;3.27;;
50281;SDS011;36176;51.506;10.272;2022-12-07T14:35:43;6.10;;;2.90;;
50281;SDS011;36176;51.506;10.272;2022-12-07T14:38:43;3.90;;;2.70;;
50281;SDS011;36176;51.506;10.272;2022-12-07T14:41:31;4.77;;;2.80;;
50281;SDS011;36176;51.506;10.272;2022-12-07T14:44:30;6.90;;;2.90;;
50281;SDS011;36176;51.506;10.272;2022-12-07T14:47:21;7.90;;;3.40;;
50281;SDS011;36176;51.506;10.272;2022-12-07T14:50:12;6.97;;;3.47;;
50281;SDS011;36176;51.506;10.272;2022-12-07T14:56:48;7.30;;;4.50;;
50281;SDS011;36176;51.506;10.272;2022-12-07T15:00:17;8.03;;;4.10;;
50281;SDS011;36176;51.506;10.272;2022-12-07T15:03:40;5.63;;;3.63;;
50281;SDS011;36176;51.506;10.272;2022-12-07T15:06:10;8.43;;;7.47;;
50281;SDS011;36176;51.506;10.272;2022-12-07T15:09:01;8.47;;;4.80;;
50281;SDS011;36176;51.506;10.272;2022-12-07T15:11:38;8.43;;;4.50;;
50281;SDS011;36176;51.506;10.272;2022-12-07T15:14:10;8.37;;;3.37;;
50281;SDS011;36176;51.506;10.272;2022-12-07T15:16:45;8.70;;;4.40;;
50281;SDS011;36176;51.506;10.272;2022-12-07T15:19:44;37.40;;;20.87;;
50281;SDS011;36176;51.506;10.272;2022-12-07T15:22:37;14.17;;;10.53;;
50281;SDS011;36176;51.506;10.272;2022-12-07T15:25:44;6.80;;;4.50;;
50281;SDS011;36176;51.506;10.272;2022-12-07T15:28:30;6.90;;;4.27;;
50281;SDS011;36176;51.506;10.272;2022-12-07T15:31:12;8.23;;;3.90;;
50281;SDS011;36176;51.506;10.272;2022-12-07T15:34:03;6.43;;;4.17;;
50281;SDS011;36176;51.506;10.272;2022-12-07T15:36:31;6.23;;;4.07;;
50281;SDS011;36176;51.506;10.272;2022-12-07T15:39:22;7.60;;;3.80;;
50281;SDS011;36176;51.506;10.272;2022-12-07T15:42:07;5.93;;;4.00;;
50281;SDS011;36176;51.506;10.272;2022-12-07T15:44:34;12.63;;;8.40;;
50281;SDS011;36176;51.506;10.272;2022-12-07T15:47:56;7.37;;;3.67;;
50281;SDS011;36176;51.506;10.272;2022-12-07T15:50:44;6.47;;;3.40;;
50281;SDS011;36176;51.506;10.272;2022-12-07T15:53:31;7.57;;;3.93;;
50281;SDS011;36176;51.506;10.272;2022-12-07T15:56:25;7.37;;;3.20;;
50281;SDS011;36176;51.506;10.272;2022-12-07T15:58:53;5.93;;;4.93;;
50281;SDS011;36176;51.506;10.272;2022-12-07T16:01:20;6.57;;;3.47;;
50281;SDS011;36176;51.506;10.272;2022-12-07T16:03:50;8.40;;;3.87;;
50281;SDS011;36176;51.506;10.272;2022-12-07T16:06:46;5.90;;;3.40;;
50281;SDS011;36176;51.506;10.272;2022-12-07T16:13:20;5.20;;;3.77;;
50281;SDS011;36176;51.506;10.272;2022-12-07T16:15:47;7.60;;;4.53;;
50281;SDS011;36176;51.506;10.272;2022-12-07T16:18:15;8.13;;;3.97;;
50281;SDS011;36176;51.506;10.272;2022-12-07T16:20:42;7.27;;;3.87;;
50281;SDS011;36176;51.506;10.272;2022-12-07T16:23:28;7.67;;;4.10;;
50281;SDS011;36176;51.506;10.272;2022-12-07T16:26:34;5.03;;;4.03;;
50281;SDS011;36176;51.506;10.272;2022-12-07T16:29:13;6.87;;;4.30;;
50281;SDS011;36176;51.506;10.272;2022-12-07T16:31:47;6.80;;;4.97;;
50281;SDS011;36176;51.506;10.272;2022-12-07T16:34:18;8.37;;;4.80;;
50281;SDS011;36176;51.506;10.272;2022-12-07T16:46:39;6.70;;;4.30;;
50281;SDS011;36176;51.506;10.272;2022-12-07T16:49:58;6.60;;;4.50;;
50281;SDS011;36176;51.506;10.272;2022-12-07T16:52:53;6.47;;;4.70;;
50281;SDS011;36176;51.506;10.272;2022-12-07T16:55:35;6.63;;;4.57;;
50281;SDS011;36176;51.506;10.272;2022-12-07T16:58:07;7.93;;;4.40;;
50281;SDS011;36176;51.506;10.272;2022-12-07T17:03:58;6.50;;;4.73;;
50281;SDS011;36176;51.506;10.272;2022-12-07T17:06:53;6.60;;;4.73;;
50281;SDS011;36176;51.506;10.272;2022-12-07T17:09:44;8.80;;;5.57;;
50281;SDS011;36176;51.506;10.272;2022-12-07T17:12:16;9.90;;;5.57;;
50281;SDS011;36176;51.506;10.272;2022-12-07T17:15:09;7.53;;;4.80;;
50281;SDS011;36176;51.506;10.272;2022-12-07T17:18:16;9.40;;;6.33;;
50281;SDS011;36176;51.506;10.272;2022-12-07T17:21:10;9.27;;;6.13;;
50281;SDS011;36176;51.506;10.272;2022-12-07T17:23:37;8.87;;;6.23;;
50281;SDS011;36176;51.506;10.272;2022-12-07T17:26:22;6.63;;;4.90;;
50281;SDS011;36176;51.506;10.272;2022-12-07T17:29:02;9.73;;;5.63;;
50281;SDS011;36176;51.506;10.272;2022-12-07T17:32:14;9.73;;;6.10;;
50281;SDS011;36176;51.506;10.272;2022-12-07T17:37:53;7.57;;;6.20;;
50281;SDS011;36176;51.506;10.272;2022-12-07T17:40:44;11.30;;;6.87;;
50281;SDS011;36176;51.506;10.272;2022-12-07T17:43:14;8.63;;;6.50;;
50281;SDS011;36176;51.506;10.272;2022-12-07T17:45:42;9.13;;;6.70;;
50281;SDS011;36176;51.506;10.272;2022-12-07T17:48:16;8.83;;;5.80;;
50281;SDS011;36176;51.506;10.272;2022-12-07T17:51:34;11.10;;;6.30;;
50281;SDS011;36176;51.506;10.272;2022-12-07T17:54:28;8.97;;;5.93;;
50281;SDS011;36176;51.506;10.272;2022-12-07T17:57:11;8.47;;;6.13;;
50281;SDS011;36176;51.506;10.272;2022-12-07T18:00:06;8.17;;;5.93;;
50281;SDS011;36176;51.506;10.272;2022-12-07T18:03:15;10.27;;;6.77;;
50281;SDS011;36176;51.506;10.272;2022-12-07T18:06:06;12.13;;;8.60;;
50281;SDS011;36176;51.506;10.272;2022-12-07T18:11:27;8.47;;;6.77;;
50281;SDS011;36176;51.506;10.272;2022-12-07T18:13:54;10.33;;;7.20;;
50281;SDS011;36176;51.506;10.272;2022-12-07T18:16:46;12.23;;;7.20;;
50281;SDS011;36176;51.506;10.272;2022-12-07T18:19:39;9.27;;;6.97;;
50281;SDS011;36176;51.506;10.272;2022-12-07T18:22:10;9.27;;;6.47;;
50281;SDS011;36176;51.506;10.272;2022-12-07T18:24:50;10.10;;;6.87;;
50281;SDS011;36176;51.506;10.272;2022-12-07T18:30:26;12.20;;;9.17;;
50281;SDS011;36176;51.506;10.272;2022-12-07T18:33:20;14.27;;;12.30;;
50281;SDS011;36176;51.506;10.272;2022-12-07T18:35:54;9.70;;;6.87;;
50281;SDS011;36176;51.506;10.272;2022-12-07T18:39:03;7.60;;;6.60;;
50281;SDS011;36176;51.506;10.272;2022-12-07T18:42:05;7.47;;;6.07;;
50281;SDS011;36176;51.506;10.272;2022-12-07T18:45:39;9.47;;;6.97;;
50281;SDS011;36176;51.506;10.272;2022-12-07T18:48:08;10.07;;;7.83;;
50281;SDS011;36176;51.506;10.272;2022-12-07T18:51:09;12.40;;;9.60;;
50281;SDS011;36176;51.506;10.272;2022-12-07T18:53:47;14.63;;;10.03;;
50281;SDS011;36176;51.506;10.272;2022-12-07T18:56:39;17.70;;;10.93;;
50281;SDS011;36176;51.506;10.272;2022-12-07T19:02:39;9.63;;;7.73;;
50281;SDS011;36176;51.506;10.272;2022-12-07T19:05:47;12.13;;;6.70;;
50281;SDS011;36176;51.506;10.272;2022-12-07T19:19:40;7.07;;;5.87;;
50281;SDS011;36176;51.506;10.272;2022-12-07T20:25:35;10.53;;;6.33;;
50281;SDS011;36176;51.506;10.272;2022-12-07T20:28:52;12.60;;;6.83;;
50281;SDS011;36176;51.506;10.272;2022-12-07T20:59:22;8.57;;;6.40;;
50281;SDS011;36176;51.506;10.272;2022-12-07T21:06:26;11.27;;;7.70;;
50281;SDS011;36176;51.506;10.272;2022-12-07T21:10:29;10.33;;;6.20;;